Time;durP1;ratioP1;P1;durP2;ratioP2;P2;SDS_P1;SDS_P2;PMS_P1;PMS_P2;Temp;Humidity;BMP_temperature;BMP_pressure;BME280_temperature;BME280_humidity;BME280_pressure;Samples;Min_cycle;Max_cycle;Signal;HPM_P1;HPM_P2
2021/12/14 00:00:58;;;;;;;;;25.50;21.25;;;;;8.04;76.71;102170.22;5054392;28;45525;-63
2021/12/14 00:03:29;;;;;;;;;27.25;23.50;;;;;8.08;76.60;102163.97;5072847;28;45522;-66
2021/12/14 00:05:55;;;;;;;;;30.00;24.25;;;;;8.17;76.24;102173.47;5077754;28;45370;-66
2021/12/14 00:08:22;;;;;;;;;34.75;25.00;;;;;8.17;76.21;102168.19;5043114;28;45315;-65
2021/12/14 00:11:27;;;;;;;;;26.75;23.25;;;;;8.18;76.08;102168.16;5043452;28;47400;-67
2021/12/14 00:16:04;;;;;;;;;21.75;21.00;;;;;8.05;76.05;102142.81;5077561;28;45475;-66
2021/12/14 00:18:32;;;;;;;;;30.00;21.00;;;;;8.05;75.79;102150.75;5076947;28;45574;-68
2021/12/14 00:21:21;;;;;;;;;22.50;20.75;;;;;8.07;76.22;102162.19;5077155;28;46245;-64
2021/12/14 00:24:07;;;;;;;;;26.25;18.00;;;;;8.09;75.80;102173.66;5075725;28;45507;-62
2021/12/14 00:26:35;;;;;;;;;23.50;14.00;;;;;8.02;75.76;102164.06;5068187;28;45358;-62
2021/12/14 00:29:02;;;;;;;;;19.50;15.75;;;;;7.87;76.02;102148.50;5077225;28;46733;-63
2021/12/14 00:31:27;;;;;;;;;23.25;19.00;;;;;7.98;75.70;102173.00;5069377;28;45597;-65
2021/12/14 00:33:56;;;;;;;;;13.75;13.75;;;;;7.99;75.98;102153.53;5077088;28;45322;-63
2021/12/14 00:36:25;;;;;;;;;16.00;14.00;;;;;8.05;75.91;102149.88;5078699;28;45547;-65
2021/12/14 00:38:56;;;;;;;;;15.00;11.00;;;;;8.00;76.04;102150.00;5058651;28;45431;-65
2021/12/14 00:41:27;;;;;;;;;17.00;14.00;;;;;7.93;75.79;102158.94;5055826;28;46137;-64
2021/12/14 00:43:54;;;;;;;;;13.00;13.00;;;;;7.95;76.37;102167.78;5046350;28;45406;-67
2021/12/14 00:46:20;;;;;;;;;20.00;17.25;;;;;7.86;76.12;102152.03;5048354;28;45450;-67
2021/12/14 00:48:49;;;;;;;;;11.50;10.00;;;;;7.90;76.13;102149.28;5039741;28;45498;-63
2021/12/14 00:51:16;;;;;;;;;14.25;13.50;;;;;7.87;76.21;102145.84;5057655;28;45494;-63
2021/12/14 00:53:42;;;;;;;;;24.25;17.25;;;;;7.93;76.93;102153.66;5078088;28;45373;-64
2021/12/14 00:56:11;;;;;;;;;14.00;11.75;;;;;7.86;75.91;102142.31;5056015;28;45521;-63
2021/12/14 00:58:36;;;;;;;;;18.75;12.50;;;;;7.81;75.75;102148.59;5076107;28;45374;-63
2021/12/14 01:01:11;;;;;;;;;16.75;12.75;;;;;7.82;76.52;102159.19;5053096;28;47308;-65
2021/12/14 01:03:39;;;;;;;;;14.00;11.25;;;;;7.83;76.64;102168.00;5043373;28;46993;-62
2021/12/14 01:06:10;;;;;;;;;15.50;11.50;;;;;7.83;76.56;102168.00;5075719;28;46145;-62
2021/12/14 01:08:39;;;;;;;;;10.00;9.50;;;;;7.83;76.75;102154.75;5078164;28;45539;-63
2021/12/14 01:11:17;;;;;;;;;13.00;13.00;;;;;7.87;76.42;102169.69;5075495;28;45474;-62
2021/12/14 01:13:53;;;;;;;;;16.00;12.00;;;;;7.88;76.14;102166.13;5074744;28;45200;-63
2021/12/14 01:16:34;;;;;;;;;11.50;11.50;;;;;7.84;76.40;102164.47;5077368;28;45412;-65
2021/12/14 01:19:19;;;;;;;;;16.25;11.00;;;;;7.83;76.18;102162.72;5052901;28;45358;-61
2021/12/14 01:27:05;;;;;;;;;8.25;8.25;;;;;7.74;75.71;102189.38;5052537;28;45486;-63
2021/12/14 01:29:32;;;;;;;;;10.25;10.25;;;;;7.66;76.08;102182.41;5071499;28;45326;-60
2021/12/14 01:32:00;;;;;;;;;14.75;12.25;;;;;7.78;76.42;102191.03;5077089;28;46608;-62
2021/12/14 01:34:31;;;;;;;;;16.25;13.50;;;;;7.68;76.54;102187.69;5070718;28;45480;-62
2021/12/14 01:37:01;;;;;;;;;17.00;14.75;;;;;7.67;76.55;102202.69;5073325;28;45468;-64
2021/12/14 01:42:08;;;;;;;;;12.00;12.00;;;;;7.75;76.69;102228.19;5074297;28;46187;-66
2021/12/14 01:44:46;;;;;;;;;19.25;14.75;;;;;7.69;77.09;102223.88;5076516;27;45326;-65
2021/12/14 01:47:16;;;;;;;;;16.00;16.00;;;;;7.75;76.94;102223.75;5061170;28;45445;-64
2021/12/14 01:49:42;;;;;;;;;15.00;12.75;;;;;7.73;76.96;102214.97;5075515;28;45281;-65
2021/12/14 01:52:15;;;;;;;;;17.50;12.75;;;;;7.77;77.04;102221.06;5070716;28;46310;-66
2021/12/14 01:54:44;;;;;;;;;18.50;13.00;;;;;7.72;77.20;102222.94;5072120;28;45532;-67
2021/12/14 01:57:13;;;;;;;;;12.50;12.50;;;;;7.77;77.17;102232.53;5075553;28;45512;-65
2021/12/14 01:59:42;;;;;;;;;19.50;16.75;;;;;7.75;77.14;102238.78;5066907;28;45513;-63
2021/12/14 02:04:44;;;;;;;;;13.75;11.50;;;;;7.55;77.62;102253.25;5068938;28;45484;-65
2021/12/14 02:07:12;;;;;;;;;9.00;9.00;;;;;7.59;77.11;102269.97;5062837;28;45519;-66
2021/12/14 02:09:40;;;;;;;;;13.00;9.00;;;;;7.54;76.46;102270.00;5058485;28;45326;-64
2021/12/14 02:12:18;;;;;;;;;9.00;9.00;;;;;7.54;76.57;102283.25;5058692;28;46287;-66
2021/12/14 02:14:45;;;;;;;;;14.25;12.75;;;;;7.56;76.60;102297.38;5057672;28;45811;-65
2021/12/14 02:17:15;;;;;;;;;15.00;10.50;;;;;7.55;76.34;102276.19;5074108;28;45287;-61
2021/12/14 02:19:42;;;;;;;;;12.50;11.75;;;;;7.62;76.91;102280.50;5076555;28;45628;-66
2021/12/14 02:22:09;;;;;;;;;12.00;9.75;;;;;7.66;76.53;102279.53;5076754;28;46087;-64
2021/12/14 02:24:36;;;;;;;;;4.00;2.75;;;;;7.53;77.04;102264.75;5069753;28;45526;-68
2021/12/14 02:27:02;;;;;;;;;14.25;10.25;;;;;7.49;77.27;102261.28;5074305;28;45444;-66
2021/12/14 02:29:34;;;;;;;;;8.25;5.75;;;;;7.48;77.64;102250.72;5072314;28;45481;-65
2021/12/14 02:32:04;;;;;;;;;13.25;10.75;;;;;7.63;77.83;102253.09;5071451;28;46024;-65
2021/12/14 02:34:30;;;;;;;;;14.25;12.00;;;;;7.59;77.80;102228.47;5073728;28;45445;-68
2021/12/14 02:36:57;;;;;;;;;20.25;14.25;;;;;7.57;77.98;102224.97;5076158;28;45512;-66
2021/12/14 02:40:16;;;;;;;;;15.25;13.00;;;;;7.49;77.88;102224.22;5075363;28;45267;-66
2021/12/14 02:42:15;;;;;;;;;14.00;12.00;;;;;7.50;78.35;102223.31;5062413;28;46026;-66
2021/12/14 02:44:46;;;;;;;;;16.75;12.50;;;;;7.44;78.38;102233.16;5054765;28;45743;-66
2021/12/14 02:47:16;;;;;;;;;17.50;14.00;;;;;7.57;77.96;102224.97;5076280;28;45374;-63
2021/12/14 02:49:43;;;;;;;;;13.00;10.50;;;;;7.61;77.80;102220.50;5054256;28;45642;-66
2021/12/14 02:52:13;;;;;;;;;15.75;10.75;;;;;7.71;77.59;102223.84;5066978;28;45433;-65
2021/12/14 02:54:50;;;;;;;;;13.00;10.75;;;;;7.76;77.08;102229.94;5076122;28;45303;-62
2021/12/14 02:57:23;;;;;;;;;16.50;12.25;;;;;7.76;77.08;102232.56;5064224;28;45750;-63
2021/12/14 02:59:49;;;;;;;;;18.25;14.00;;;;;7.72;77.16;102228.25;5070507;28;45426;-64
2021/12/14 03:02:19;;;;;;;;;14.25;14.00;;;;;7.72;76.96;102213.22;5073857;28;45627;-66
2021/12/14 03:04:50;;;;;;;;;14.00;14.00;;;;;7.80;76.69;102210.41;5056026;28;45466;-66
2021/12/14 03:07:21;;;;;;;;;12.75;12.75;;;;;7.82;76.64;102206.00;5074786;28;45408;-67
2021/12/14 03:10:00;;;;;;;;;15.75;13.75;;;;;7.86;76.45;102205.91;5055026;28;45665;-65
2021/12/14 03:12:34;;;;;;;;;13.75;12.75;;;;;7.86;75.91;102199.72;5074718;28;45483;-63
2021/12/14 03:15:23;;;;;;;;;15.00;13.00;;;;;7.80;75.92;102181.28;5071529;28;45546;-62
2021/12/14 03:17:52;;;;;;;;;14.50;10.00;;;;;7.87;75.79;102190.88;5070491;28;45518;-66
2021/12/14 03:20:30;;;;;;;;;13.75;13.00;;;;;7.87;76.00;102196.16;5055580;28;45512;-62
2021/12/14 03:23:01;;;;;;;;;15.00;15.00;;;;;7.86;76.09;102210.31;5070485;28;46247;-65
2021/12/14 03:25:27;;;;;;;;;17.25;13.25;;;;;7.93;76.10;102203.97;5065079;28;45507;-66
2021/12/14 03:27:54;;;;;;;;;22.50;16.00;;;;;7.87;75.69;102197.03;5057002;28;45435;-66
2021/12/14 03:30:26;;;;;;;;;20.50;19.00;;;;;7.90;75.83;102196.97;5074305;28;45343;-66
2021/12/14 03:32:55;;;;;;;;;29.00;17.25;;;;;7.93;75.83;102198.69;5072057;28;45507;-66
2021/12/14 03:35:45;;;;;;;;;18.00;17.00;;;;;7.97;75.68;102197.75;5068420;28;45448;-64
2021/12/14 03:38:34;;;;;;;;;19.75;17.25;;;;;7.95;75.89;102184.53;5075779;28;45384;-67
2021/12/14 03:41:06;;;;;;;;;17.25;17.25;;;;;7.96;75.76;102188.06;5075336;28;45432;-65
2021/12/14 03:43:33;;;;;;;;;23.25;20.00;;;;;7.99;75.50;102169.44;5047796;28;45498;-64
2021/12/14 03:46:00;;;;;;;;;19.25;17.00;;;;;7.94;75.07;102176.59;5064678;28;45437;-67
2021/12/14 03:48:28;;;;;;;;;27.00;18.50;;;;;7.88;75.10;102188.19;5075506;28;45342;-65
2021/12/14 03:50:54;;;;;;;;;16.75;13.75;;;;;7.69;74.82;102179.75;5070479;28;45448;-65
2021/12/14 03:53:21;;;;;;;;;23.50;18.50;;;;;7.76;76.45;102176.97;5075040;28;45355;-65
2021/12/14 03:55:56;;;;;;;;;22.50;13.00;;;;;7.73;76.18;102171.72;5074727;28;45366;-63
2021/12/14 03:58:37;;;;;;;;;19.50;16.75;;;;;7.82;76.13;102166.25;5074823;28;45279;-65
2021/12/14 04:01:19;;;;;;;;;19.25;16.50;;;;;7.92;75.43;102167.81;5074586;28;45234;-65
2021/12/14 04:03:47;;;;;;;;;19.50;13.25;;;;;7.91;75.47;102147.53;5056667;28;46699;-62
2021/12/14 04:06:14;;;;;;;;;22.75;17.00;;;;;7.95;75.37;102160.69;5073905;28;45460;-67
2021/12/14 04:08:40;;;;;;;;;16.75;15.25;;;;;7.93;75.63;102164.25;5072819;28;46052;-64
2021/12/14 04:11:10;;;;;;;;;25.00;19.00;;;;;7.91;75.54;102156.34;5077845;28;45731;-65
2021/12/14 04:13:45;;;;;;;;;20.50;18.25;;;;;7.96;75.46;102164.22;5041064;28;47059;-63
2021/12/14 04:16:14;;;;;;;;;22.00;20.00;;;;;7.93;75.91;102164.25;5077531;28;45576;-63
2021/12/14 04:18:40;;;;;;;;;19.50;17.00;;;;;7.86;76.65;102173.25;5075543;28;46630;-67
2021/12/14 04:21:06;;;;;;;;;21.25;17.50;;;;;7.84;76.61;102180.34;5071780;28;45493;-65
2021/12/14 04:23:46;;;;;;;;;18.00;18.00;;;;;7.81;76.79;102185.69;5077840;28;46234;-63
2021/12/14 04:26:13;;;;;;;;;23.75;19.75;;;;;7.86;76.48;102195.31;5072969;28;45676;-67
2021/12/14 04:28:47;;;;;;;;;31.50;19.25;;;;;7.88;76.19;102192.63;5071729;28;45528;-64
2021/12/14 04:31:13;;;;;;;;;16.75;12.25;;;;;7.80;76.38;102194.53;5078877;28;45555;-67
2021/12/14 04:33:42;;;;;;;;;17.00;16.25;;;;;7.81;77.14;102185.69;5067098;28;46035;-64
2021/12/14 04:36:11;;;;;;;;;23.00;18.00;;;;;7.82;76.85;102209.50;5066514;28;45492;-63
2021/12/14 04:38:46;;;;;;;;;20.25;20.25;;;;;7.90;76.53;102201.41;5056796;28;45495;-65
2021/12/14 04:52:13;;;;;;;;;19.00;15.75;;;;;7.95;76.72;102191.63;5077349;28;45476;-64
2021/12/14 04:54:44;;;;;;;;;24.50;20.50;;;;;7.95;76.78;102188.97;5076476;28;46126;-63
2021/12/14 04:57:31;;;;;;;;;21.00;16.25;;;;;7.92;76.68;102181.06;5077202;28;45337;-62
2021/12/14 05:00:15;;;;;;;;;24.25;19.00;;;;;7.98;76.09;102188.91;5065163;28;45401;-62
2021/12/14 05:02:41;;;;;;;;;26.00;18.00;;;;;7.90;77.00;102196.09;5060325;28;45330;-63
2021/12/14 05:05:09;;;;;;;;;30.75;16.25;;;;;7.90;76.57;102196.09;5075307;28;46638;-64
2021/12/14 05:10:08;;;;;;;;;19.00;17.00;;;;;7.73;76.72;102201.72;5072098;28;45380;-65
2021/12/14 05:12:36;;;;;;;;;17.75;13.75;;;;;7.69;76.96;102197.41;5075458;28;45725;-65
2021/12/14 05:15:07;;;;;;;;;14.00;14.00;;;;;7.59;77.45;102182.59;5076309;28;46356;-66
2021/12/14 05:17:35;;;;;;;;;10.00;8.50;;;;;7.62;77.29;102196.63;5076270;28;45439;-68
2021/12/14 05:20:05;;;;;;;;;19.50;18.50;;;;;7.66;77.12;102198.31;5070434;28;45493;-63
2021/12/14 05:22:34;;;;;;;;;22.25;16.25;;;;;7.71;77.46;102207.97;5057761;28;45439;-62
2021/12/14 05:25:15;;;;;;;;;17.25;15.50;;;;;7.63;77.30;102193.06;5053500;28;47480;-64
2021/12/14 05:27:45;;;;;;;;;20.50;16.25;;;;;7.62;77.29;102206.34;5071674;28;45556;-64
2021/12/14 05:30:14;;;;;;;;;18.75;16.25;;;;;7.64;77.69;102201.91;5072102;28;45494;-64
2021/12/14 05:32:40;;;;;;;;;20.75;17.50;;;;;7.65;77.33;102196.56;5069630;28;45491;-64
2021/12/14 05:35:09;;;;;;;;;21.50;19.50;;;;;7.69;77.01;102208.88;5074228;28;45474;-65
2021/12/14 05:37:43;;;;;;;;;23.25;20.00;;;;;7.70;77.29;102207.09;5074967;28;45659;-63
2021/12/14 05:40:18;;;;;;;;;19.50;17.50;;;;;7.74;76.69;102210.56;5074318;28;45394;-66
2021/12/14 05:45:28;;;;;;;;;23.00;16.50;;;;;7.62;77.29;102207.22;5076473;28;45397;-65
2021/12/14 05:47:57;;;;;;;;;16.00;14.00;;;;;7.55;77.41;102205.59;5074243;28;45270;-64
2021/12/14 05:50:34;;;;;;;;;7.25;5.50;;;;;7.51;77.10;102209.19;5067007;28;45465;-65
2021/12/14 05:53:00;;;;;;;;;17.25;16.75;;;;;7.43;77.58;102215.53;5076068;28;45356;-65
2021/12/14 05:55:30;;;;;;;;;16.50;16.50;;;;;7.46;77.71;102208.41;5058368;28;46314;-63
2021/12/14 05:57:57;;;;;;;;;16.25;14.00;;;;;7.55;77.34;102213.53;5075471;28;45481;-62
2021/12/14 06:00:25;;;;;;;;;17.75;14.25;;;;;7.64;76.73;102223.94;5069002;28;45552;-63
2021/12/14 06:02:51;;;;;;;;;18.25;14.50;;;;;7.67;76.63;102229.19;5069025;28;45768;-64
2021/12/14 06:05:19;;;;;;;;;14.50;13.50;;;;;7.62;76.33;102223.09;5058339;28;45370;-64
2021/12/14 06:07:45;;;;;;;;;14.75;14.25;;;;;7.59;76.66;102223.16;5069776;28;45343;-62
2021/12/14 06:10:13;;;;;;;;;16.75;16.00;;;;;7.59;76.96;102223.16;5076607;28;45337;-63
2021/12/14 06:12:40;;;;;;;;;25.75;17.00;;;;;7.53;76.59;102238.28;5057825;28;45425;-64
2021/12/14 06:15:11;;;;;;;;;23.75;14.75;;;;;7.45;76.56;102245.50;5058201;28;46816;-63
2021/12/14 06:17:40;;;;;;;;;20.25;17.25;;;;;7.33;76.97;102258.03;5075167;28;45456;-68
2021/12/14 06:20:15;;;;;;;;;16.00;13.25;;;;;7.24;77.41;102267.88;5047362;28;45309;-64
2021/12/14 06:22:42;;;;;;;;;17.75;17.25;;;;;7.32;77.57;102271.28;5041956;28;45316;-64
2021/12/14 06:25:21;;;;;;;;;16.00;13.50;;;;;7.32;77.88;102271.28;5074304;28;46237;-67
2021/12/14 06:27:47;;;;;;;;;14.75;11.50;;;;;7.35;76.93;102260.63;5075262;27;45488;-68
2021/12/14 06:30:23;;;;;;;;;15.50;11.25;;;;;7.37;76.88;102261.47;5073723;28;45334;-65
2021/12/14 06:32:59;;;;;;;;;22.25;17.00;;;;;7.43;76.83;102257.88;5069587;28;45505;-64
2021/12/14 06:35:30;;;;;;;;;20.00;16.50;;;;;7.47;76.44;102263.09;5076421;28;45485;-65
2021/12/14 06:40:42;;;;;;;;;17.50;16.25;;;;;7.40;76.19;102258.78;5062160;28;45325;-68
2021/12/14 06:43:12;;;;;;;;;16.00;12.00;;;;;7.47;76.54;102278.97;5066158;28;45487;-68
2021/12/14 06:45:44;;;;;;;;;15.00;13.00;;;;;7.50;76.10;102278.91;5075550;28;45216;-67
2021/12/14 06:48:16;;;;;;;;;17.00;13.25;;;;;7.53;76.27;102276.22;5072768;28;45583;-60
2021/12/14 06:50:48;;;;;;;;;20.00;16.75;;;;;7.58;76.33;102278.81;5068425;28;45507;-61
2021/12/14 06:53:16;;;;;;;;;21.75;18.25;;;;;7.62;76.13;102280.50;5058113;28;45287;-59
2021/12/14 06:55:44;;;;;;;;;20.00;13.00;;;;;7.64;76.58;102268.97;5075715;28;46192;-66
2021/12/14 06:58:32;;;;;;;;;13.50;13.50;;;;;7.73;75.38;102280.31;5057477;28;45415;-61
2021/12/14 07:01:10;;;;;;;;;19.25;17.00;;;;;7.64;76.00;102286.63;5075949;28;45362;-66
2021/12/14 07:03:57;;;;;;;;;14.25;14.25;;;;;7.65;75.95;102276.00;5065201;28;45519;-63
2021/12/14 07:06:36;;;;;;;;;21.75;20.50;;;;;7.74;75.72;102288.22;5053342;28;46684;-64
2021/12/14 07:09:14;;;;;;;;;17.25;15.75;;;;;7.75;75.85;102286.44;5055586;28;45317;-61
2021/12/14 07:11:47;;;;;;;;;21.50;16.75;;;;;7.77;75.63;102279.34;5073923;28;45430;-63
2021/12/14 07:14:28;;;;;;;;;22.00;16.75;;;;;7.83;75.26;102280.13;5071375;28;45375;-61
2021/12/14 07:16:56;;;;;;;;;20.00;17.75;;;;;7.88;76.09;102280.03;5075858;28;45533;-66
2021/12/14 07:19:40;;;;;;;;;43.00;32.00;;;;;7.89;75.79;102280.00;5072556;28;45353;-63
2021/12/14 07:22:06;;;;;;;;;17.50;17.50;;;;;7.92;75.49;102271.13;5063547;28;45582;-60
2021/12/14 07:24:36;;;;;;;;;19.50;17.75;;;;;7.86;75.59;102279.19;5053822;28;45548;-62
2021/12/14 07:27:18;;;;;;;;;21.75;18.50;;;;;7.84;75.77;102281.88;5069708;28;46192;-64
2021/12/14 07:29:45;;;;;;;;;24.25;17.25;;;;;7.80;75.50;102290.75;5059854;28;45249;-63
2021/12/14 07:32:10;;;;;;;;;13.00;9.00;;;;;7.83;75.84;102284.56;5061681;28;45824;-61
2021/12/14 07:34:36;;;;;;;;;23.00;21.75;;;;;7.93;75.92;102283.47;5057196;28;45527;-64
2021/12/14 07:37:05;;;;;;;;;14.75;13.75;;;;;8.01;75.70;102273.59;5071833;28;45574;-62
2021/12/14 07:39:30;;;;;;;;;22.00;17.00;;;;;8.03;74.85;102277.09;5063523;28;45516;-61
2021/12/14 07:41:59;;;;;;;;;32.50;17.50;;;;;8.01;75.14;102281.56;5064970;28;45420;-61
2021/12/14 07:44:38;;;;;;;;;17.50;14.00;;;;;8.02;75.16;102288.59;5060019;28;45235;-63
2021/12/14 07:47:05;;;;;;;;;20.75;18.00;;;;;8.03;75.09;102287.69;5065279;28;45489;-60
2021/12/14 07:49:54;;;;;;;;;25.00;16.25;;;;;8.02;74.77;102290.38;5071625;28;45489;-61
2021/12/14 07:52:31;;;;;;;;;19.75;19.00;;;;;8.05;75.33;102307.09;5064479;28;45609;-61
2021/12/14 07:55:01;;;;;;;;;16.50;14.75;;;;;8.06;75.20;102314.13;5047608;28;45530;-64
2021/12/14 07:57:30;;;;;;;;;27.00;18.25;;;;;8.12;74.83;102316.69;5059776;28;45506;-63
2021/12/14 08:00:07;;;;;;;;;19.75;17.00;;;;;8.20;74.99;102317.44;5044409;28;45739;-62
2021/12/14 08:02:48;;;;;;;;;23.50;18.00;;;;;8.21;75.11;102303.28;5048745;28;45577;-63
2021/12/14 08:05:24;;;;;;;;;18.25;17.00;;;;;8.31;74.61;102318.97;5072714;28;45476;-64
2021/12/14 08:08:31;;;;;;;;;25.75;18.75;;;;;8.30;74.28;102318.09;5040979;28;46828;-64
2021/12/14 08:13:50;;;;;;;;;15.25;14.00;;;;;8.31;74.49;102330.44;5059830;28;45244;-59
2021/12/14 08:16:16;;;;;;;;;21.50;19.25;;;;;8.22;74.32;102338.59;5064359;27;45513;-58
2021/12/14 08:18:44;;;;;;;;;27.75;17.25;;;;;8.18;74.79;102337.75;5040985;28;46180;-61
2021/12/14 08:21:19;;;;;;;;;31.50;22.75;;;;;8.32;74.79;102344.56;5062524;28;45470;-58
2021/12/14 08:23:58;;;;;;;;;22.75;20.50;;;;;8.42;74.53;102346.19;5054708;28;45521;-63
2021/12/14 08:26:31;;;;;;;;;26.75;22.50;;;;;8.45;73.68;102344.34;5070770;28;45502;-61
2021/12/14 08:29:03;;;;;;;;;26.50;22.50;;;;;8.48;74.42;102348.75;5076675;28;46276;-62
2021/12/14 08:31:34;;;;;;;;;28.75;21.75;;;;;8.53;74.11;102352.16;5069585;28;45459;-62
2021/12/14 08:34:04;;;;;;;;;22.00;20.00;;;;;8.52;73.90;102353.06;5070674;28;45401;-63
2021/12/14 08:36:44;;;;;;;;;21.50;20.25;;;;;8.45;73.66;102354.09;5048701;28;45441;-61
2021/12/14 08:39:09;;;;;;;;;23.50;20.00;;;;;8.46;74.58;102346.13;5051916;28;46996;-66
2021/12/14 08:41:47;;;;;;;;;25.50;22.75;;;;;8.51;73.86;102343.38;5072300;28;48819;-63
2021/12/14 08:44:20;;;;;;;;;29.00;27.50;;;;;8.57;73.13;102349.41;5068768;28;45448;-63
2021/12/14 08:46:49;;;;;;;;;41.50;27.25;;;;;8.43;73.95;102345.28;5076436;28;45413;-61
2021/12/14 08:49:16;;;;;;;;;28.00;23.25;;;;;8.42;74.41;102357.69;5071610;28;45424;-65
2021/12/14 08:51:45;;;;;;;;;19.75;16.75;;;;;8.50;73.92;102365.50;5065643;28;45414;-63
2021/12/14 08:54:21;;;;;;;;;27.25;21.75;;;;;8.55;74.12;102356.53;5051078;28;45580;-67
2021/12/14 08:56:56;;;;;;;;;28.00;23.50;;;;;8.66;73.44;102369.59;5061693;28;45523;-63
2021/12/14 08:59:22;;;;;;;;;24.00;22.75;;;;;8.72;73.58;102369.44;5060727;28;46186;-64
2021/12/14 09:01:50;;;;;;;;;19.00;19.00;;;;;8.74;73.63;102365.03;5057631;28;45557;-67
2021/12/14 09:04:19;;;;;;;;;22.75;17.75;;;;;8.79;73.08;102360.47;5045245;28;45363;-63
2021/12/14 09:06:48;;;;;;;;;21.50;18.75;;;;;8.80;72.48;102345.44;5061348;28;45632;-64
2021/12/14 09:09:17;;;;;;;;;26.50;19.75;;;;;8.80;72.13;102340.13;5068138;28;45573;-63
2021/12/14 09:11:46;;;;;;;;;28.50;23.00;;;;;8.87;72.40;102341.75;5062981;28;45456;-61
2021/12/14 09:14:14;;;;;;;;;21.00;18.50;;;;;8.93;72.57;102348.72;5069829;28;46942;-65
2021/12/14 09:16:43;;;;;;;;;27.75;21.75;;;;;8.93;71.94;102340.75;5062577;28;45507;-62
2021/12/14 09:19:19;;;;;;;;;27.25;23.00;;;;;8.96;72.69;102346.84;5065231;28;45607;-66
2021/12/14 09:21:48;;;;;;;;;23.00;18.00;;;;;9.01;71.94;102347.66;5064797;28;45421;-63
2021/12/14 09:24:17;;;;;;;;;32.00;22.00;;;;;9.03;71.46;102355.56;5077071;28;45503;-66
2021/12/14 09:26:46;;;;;;;;;27.75;20.75;;;;;9.00;71.69;102363.59;5071186;28;45573;-65
2021/12/14 09:29:15;;;;;;;;;36.50;24.50;;;;;8.99;71.88;102356.56;5074787;28;46290;-64
2021/12/14 09:31:47;;;;;;;;;26.25;22.75;;;;;9.06;72.17;102360.81;5060967;28;45332;-62
2021/12/14 09:34:16;;;;;;;;;23.25;18.00;;;;;9.09;72.32;102350.97;5056920;28;45426;-62
2021/12/14 09:36:45;;;;;;;;;20.25;19.75;;;;;9.17;70.98;102364.09;5049722;28;45493;-65
2021/12/14 09:39:33;;;;;;;;;22.75;18.75;;;;;9.16;70.86;102365.00;5056725;28;46395;-60
2021/12/14 09:42:04;;;;;;;;;25.50;23.50;;;;;9.09;70.94;102352.78;5067977;28;45487;-60
2021/12/14 09:44:34;;;;;;;;;22.50;20.25;;;;;9.16;71.39;102365.88;5057391;28;45292;-63
2021/12/14 09:47:08;;;;;;;;;30.25;26.75;;;;;9.20;71.58;102372.00;5058875;28;45524;-63
2021/12/14 09:49:35;;;;;;;;;29.50;21.25;;;;;9.23;72.10;102371.91;5072944;28;46079;-64
2021/12/14 09:52:23;;;;;;;;;22.50;20.25;;;;;9.32;71.63;102387.66;5066750;28;45383;-64
2021/12/14 09:54:49;;;;;;;;;26.50;22.50;;;;;9.29;71.38;102390.38;5076113;28;45393;-60
2021/12/14 09:57:24;;;;;;;;;27.00;20.00;;;;;9.31;71.04;102391.22;5066197;28;45287;-64
2021/12/14 09:59:52;;;;;;;;;25.00;22.00;;;;;9.25;71.17;102386.06;5076101;28;45425;-61
2021/12/14 10:02:33;;;;;;;;;27.75;26.25;;;;;9.21;71.14;102384.34;5076540;28;45362;-62
2021/12/14 10:05:09;;;;;;;;;26.75;26.75;;;;;9.16;71.30;102381.81;5070038;28;45339;-61
2021/12/14 10:07:35;;;;;;;;;26.50;24.50;;;;;9.16;71.80;102378.28;5042429;28;45397;-62
2021/12/14 10:10:02;;;;;;;;;30.50;27.00;;;;;9.24;71.27;102376.31;5070949;28;46077;-61
2021/12/14 10:15:12;;;;;;;;;36.75;28.25;;;;;9.22;71.08;102380.78;5076779;28;45463;-64
2021/12/14 10:17:40;;;;;;;;;34.50;32.25;;;;;9.11;71.15;102375.75;5058414;28;45446;-65
2021/12/14 10:20:11;;;;;;;;;24.75;22.75;;;;;9.19;71.52;102370.25;5075865;28;45441;-62
2021/12/14 10:22:37;;;;;;;;;29.75;24.25;;;;;9.41;72.03;102376.84;5057649;28;45368;-64
2021/12/14 10:25:11;;;;;;;;;39.50;35.50;;;;;9.51;71.33;102387.25;5051798;28;45417;-61
2021/12/14 10:27:39;;;;;;;;;32.25;25.75;;;;;9.42;70.21;102375.94;5069425;28;45639;-63
2021/12/14 10:30:12;;;;;;;;;40.50;27.00;;;;;9.51;70.34;102381.94;5073538;28;45652;-63
2021/12/14 10:32:39;;;;;;;;;34.25;30.25;;;;;9.61;70.76;102383.44;5060124;28;45536;-64
2021/12/14 10:35:15;;;;;;;;;33.25;27.50;;;;;9.60;70.50;102382.59;5064399;28;45439;-66
2021/12/14 10:37:54;;;;;;;;;28.00;27.00;;;;;9.59;70.10;102379.97;5059048;28;45528;-64
2021/12/14 10:43:15;;;;;;;;;30.25;26.00;;;;;9.68;69.89;102393.03;5055841;28;45449;-62
2021/12/14 10:46:12;;;;;;;;;29.00;25.75;;;;;9.74;70.42;102395.53;5065032;28;45562;-65
2021/12/14 10:48:42;;;;;;;;;27.25;22.75;;;;;9.86;69.25;102384.63;5057606;28;45524;-60
2021/12/14 10:51:13;;;;;;;;;24.00;24.00;;;;;9.95;69.19;102383.53;5057189;28;45678;-63
2021/12/14 10:53:42;;;;;;;;;35.25;25.50;;;;;9.98;68.96;102396.72;5070948;28;45438;-64
2021/12/14 10:56:13;;;;;;;;;32.50;29.75;;;;;9.90;69.19;102380.13;5074995;28;45272;-63
2021/12/14 10:58:40;;;;;;;;;29.25;28.00;;;;;9.95;69.67;102378.22;5076170;28;45315;-64
2021/12/14 11:01:17;;;;;;;;;28.75;28.75;;;;;10.00;69.19;102387.81;5070728;28;46371;-64
2021/12/14 11:03:49;;;;;;;;;26.50;24.00;;;;;9.93;68.15;102390.66;5055586;28;46949;-62
2021/12/14 11:06:22;;;;;;;;;28.75;25.75;;;;;9.95;68.85;102388.84;5066995;28;45464;-61
2021/12/14 11:09:38;;;;;;;;;39.50;26.75;;;;;10.02;68.97;102385.09;5064559;28;45396;-66
2021/12/14 11:11:47;;;;;;;;;31.25;26.00;;;;;10.08;68.52;102384.09;5058486;28;45523;-63
2021/12/14 11:14:23;;;;;;;;;37.50;25.25;;;;;9.98;69.80;102391.41;5040665;28;45484;-62
2021/12/14 11:19:49;;;;;;;;;22.50;20.75;;;;;9.85;68.91;102382.88;5069929;28;45504;-70
2021/12/14 11:22:24;;;;;;;;;29.50;25.25;;;;;9.86;69.70;102384.63;5063114;27;46216;-67
2021/12/14 11:24:57;;;;;;;;;26.25;20.00;;;;;9.79;69.82;102368.88;5076606;28;45587;-66
2021/12/14 11:27:27;;;;;;;;;30.75;27.00;;;;;9.90;68.87;102374.81;5067154;28;45484;-66
2021/12/14 11:30:10;;;;;;;;;28.75;22.25;;;;;9.95;69.16;102381.75;5068557;28;45397;-64
2021/12/14 11:32:41;;;;;;;;;32.00;27.75;;;;;10.01;68.90;102378.03;5044219;28;45537;-64
2021/12/14 11:35:40;;;;;;;;;35.75;28.50;;;;;9.98;68.73;102378.13;5044367;28;45617;-66
2021/12/14 11:38:23;;;;;;;;;24.75;22.25;;;;;10.04;69.34;102375.31;4980128;27;45519;-64
2021/12/14 11:40:49;;;;;;;;;24.00;21.00;;;;;10.09;67.89;102372.53;5040371;28;45616;-63
2021/12/14 11:43:21;;;;;;;;;34.75;30.50;;;;;10.05;68.42;102374.41;5065310;28;46022;-63
2021/12/14 11:45:48;;;;;;;;;30.75;29.00;;;;;10.07;68.66;102363.75;5068686;27;45231;-63
2021/12/14 11:48:25;;;;;;;;;34.00;27.25;;;;;10.10;68.95;102351.22;5055414;28;45778;-62
2021/12/14 11:50:51;;;;;;;;;29.50;27.75;;;;;10.24;68.35;102358.88;5072798;28;45362;-62
2021/12/14 11:53:20;;;;;;;;;25.00;21.25;;;;;10.24;68.13;102359.75;5078627;28;46099;-62
2021/12/14 11:55:53;;;;;;;;;22.25;22.25;;;;;10.25;67.82;102360.63;5052187;28;45287;-65
2021/12/14 11:58:31;;;;;;;;;34.50;33.00;;;;;10.22;67.70;102355.38;5060303;28;45465;-63
2021/12/14 12:01:11;;;;;;;;;28.25;27.25;;;;;10.25;69.00;102349.97;5078083;28;45465;-61
2021/12/14 12:03:36;;;;;;;;;31.50;29.00;;;;;10.29;67.88;102346.34;5057538;28;46238;-65
2021/12/14 12:06:12;;;;;;;;;34.25;26.75;;;;;10.36;68.72;102337.28;5058324;28;45485;-66
2021/12/14 12:11:35;;;;;;;;;47.00;39.25;;;;;10.39;68.19;102331.88;5061833;28;45453;-64
2021/12/14 12:14:16;;;;;;;;;35.75;35.00;;;;;10.32;68.22;102330.31;5075464;27;45283;-65
2021/12/14 12:16:42;;;;;;;;;35.00;29.00;;;;;10.15;67.26;102301.47;5066635;27;45309;-62
2021/12/14 12:19:16;;;;;;;;;34.75;30.50;;;;;10.15;68.03;102313.88;5066032;27;45229;-61
2021/12/14 12:21:44;;;;;;;;;33.00;26.00;;;;;10.25;68.07;102339.34;5058636;28;45529;-61
2021/12/14 12:24:35;;;;;;;;;41.75;34.25;;;;;10.25;68.75;102339.34;5058462;27;45274;-61